Tiempo atmosférico en la estación meteorológica de Andorra, Teruel (762 m.)



Fecha
DESCASC
Temp. máxima en grados centígrados (hora)
DESCASC
Temp. mínima en grados centígrados (hora)
DESCASC
Temp. media en grados centígrados
DESCASC
Racha de viento máxima en m/sg (hora)
DESCASC
Velocidad máxima media en intervalos de 10 minutos(hora)
DESCASC
Precipitaciones diarias en mm
DESCASC
Precipitaciones de 00:00 a 06:00 en mm
DESCASC
Precipitaciones de 06:00 a 12:00 en mm
DESCASC
Precipitaciones de 12:00 a 18:00 en mm
DESCASC
Precipitaciones de 18:00 a 24:00 en mm
DESCASC
17-09-2020 28.4 (15:10) 19.2 (08:30) 23.8 10 (16:50) 6.39 (16:50) 0 0 0 0 0
15-09-2020 28.7 (16:10) 18.8 (09:00) 23.8 19.44 (02:30) 14.72 (02:50) 0.8 0 0 0 0.8
14-09-2020 29.4 (15:20) 19.2 (02:10) 24.3 13.06 (14:50) 8.33 (15:10) 0 0 0 0 0
13-09-2020 29.4 (15:40) 17.3 (00:00) 23.3 12.5 (18:30) 9.44 (17:20) 0 0 0 0 0
12-09-2020 27.2 (16:00) 15 (08:30) 21.1 7.78 (17:10) 5.56 (17:10) 0 0 0 0 0
11-09-2020 26.7 (16:40) 14.6 (00:00) 20.7 8.33 (00:10) 7.22 (00:30) 0 0 0 0 0
10-09-2020 26.7 (17:50) 13.4 (00:00) 20.1 8.89 (21:40) 6.94 (23:59) 1.6 1.4 0.2 0 0
09-09-2020 23.4 (15:30) 14.4 (08:00) 18.9 9.44 (19:40) 7.5 (19:50) 0.2 0 0 0 0.2
08-09-2020 22 (15:30) 10.1 (00:00) 16.1 10.28 (02:40) 8.06 (02:50) 0 0 0 0 0
07-09-2020 22.7 (17:10) 11.7 (07:20) 17.2 19.72 (09:20) 15 (09:30) 0 0 0 0 0
06-09-2020 24.6 (16:20) 13.6 (00:00) 19.1 15.28 (23:59) 10.83 (23:00) 0.2 0 0 0 0.2
05-09-2020 28 (17:20) 16.3 (00:00) 22.1 9.44 (21:50) 6.39 (21:50) 0 0 0 0 0
04-09-2020 28.2 (16:50) 16.8 (00:00) 22.5 10 (19:00) 8.33 (19:40) 0 0 0 0 0
03-09-2020 26.8 (17:20) 14.5 (00:00) 20.6 8.61 (18:30) 6.39 (18:30) 0 0 0 0 0
02-09-2020 25.1 (16:10) 12.4 (00:00) 18.8 10.28 (13:50) 8.06 (01:40) 0 0 0 0 0
01-09-2020 22.4 (14:00) 13.6 (00:00) 18 7.5 (23:50) 5.56 (23:50) 0 0 0 0 0
31-08-2020 22.7 (16:40) 9.5 (00:00) 16.1 10.83 (01:50) 8.61 (01:50) 0 0 0 0 0
30-08-2020 19.9 (17:20) 10.4 (00:00) 15.1 18.89 (03:10) 13.33 (01:00) 0 0 0 0 0
29-08-2020 21.6 (17:10) 13.1 (00:00) 17.4 18.33 (23:10) 12.5 (22:40) 0 0 0 0 0
28-08-2020 27.6 (16:20) 15.7 (00:00) 21.7 12.22 (23:59) 8.89 (21:50) 2 0 0 1 1
27-08-2020 31.5 (15:10) 20.5 (00:00) 26 8.33 (16:30) 5.83 (04:00) 0 0 0 0 0
26-08-2020 31.3 (17:20) 19.2 (00:00) 25.3 7.78 (03:00) 6.11 (03:00) 0 0 0 0 0
25-08-2020 31.3 (17:00) 20.1 (00:00) 25.7 9.17 (14:20) 6.11 (17:30) 0 0 0 0 0
24-08-2020 26.4 (16:50) 14.4 (07:50) 20.4 10.83 (01:20) 9.44 (01:20) 0 0 0 0 0
23-08-2020 27.9 (16:50) 16 (00:00) 21.9 8.89 (08:10) 7.5 (23:59) 0 0 0 0 0
22-08-2020 28.2 (17:50) 18.1 (00:00) 23.2 11.94 (00:20) 9.44 (00:20) 0 0 0 0 0
21-08-2020 32.4 (17:10) 22.4 (06:20) 27.4 12.78 (23:20) 10 (23:40) 0 0 0 0 0

Gráficas

Temp. máximas Temp. mínimas Temp. medias Precipitaciones Rachas de viento máximas Velocidades máximas media en intervalos de 10 minutos

Datos horarios

Fecha y hora oficial Temperatura (ºC) Velocidad del viento (km/h) Dirección del viento Racha (km/h) Dirección de racha Precipitación (mm) Presión (hPa) Tendencia (hPa) Humedad (%)
2020-09-19 23:00:00 17.8 26 Oeste 53 Oeste 0 -- -- 60
2020-09-19 22:00:00 19.1 31 Oeste 41 Oeste 0 -- -- 55
2020-09-19 21:00:00 19.7 23 Oeste 30 Oeste 0 -- -- 54
2020-09-19 20:00:00 20.8 26 Oeste 43 Oeste 0 -- -- 51
2020-09-19 19:00:00 22.8 30 Oeste 36 Oeste 0 -- -- 43
2020-09-19 18:00:00 23.8 22 Oeste 46 Oeste 0 -- -- 38
2020-09-19 17:00:00 23.3 32 Oeste 40 Oeste 0 -- -- 38
2020-09-19 16:00:00 23.7 19 Oeste 32 Oeste 0 -- -- 41
2020-09-19 15:00:00 22.8 29 Oeste 40 Sudoeste 0 -- -- 43
2020-09-19 14:00:00 23.2 29 Oeste 44 Sudoeste 0 -- -- 44
2020-09-19 13:00:00 22.2 31 Sudoeste 46 Sudoeste 0 -- -- 47
2020-09-19 12:00:00 21.3 26 Sudoeste 41 Sudoeste 0 -- -- 50
2020-09-19 11:00:00 20.7 24 Sudoeste 45 Sudoeste 0 -- -- 52
2020-09-19 10:00:00 19.6 15 Sudoeste 33 Sudoeste 0 -- -- 55
2020-09-19 09:00:00 18.1 3 Sudoeste 33 Sudoeste 0 -- -- 62
2020-09-19 08:00:00 16.8 21 Sudoeste 31 Sudoeste 0 -- -- 68
2020-09-19 07:00:00 17.5 22 Sudoeste 35 Sudoeste 0 -- -- 68
2020-09-19 06:00:00 16.8 7 Oeste 14 Oeste 0 -- -- 70
2020-09-19 05:00:00 17.4 10 Sudoeste 18 Sudoeste 0 -- -- 65
2020-09-19 04:00:00 17.4 15 Sudoeste 18 Sudoeste 0 -- -- 63
2020-09-19 03:00:00 17.2 9 Sur 14 Sudeste 0 -- -- 63
2020-09-19 02:00:00 17.1 8 Sur 22 Sur 0 -- -- 61
2020-09-19 01:00:00 16.1 18 Sur 21 Sur 0 -- -- 66
2020-09-19 00:00:00 17.5 8 Sur 15 Sur 0 -- -- 63
2020-09-18 23:00:00 17.3 11 Sudoeste 42 Sudoeste 0 -- -- 64
2020-09-18 22:00:00 18.4 14 Sudoeste 30 Sudeste 0 -- -- 69
2020-09-18 21:00:00 19.2 14 Sur 30 Sur 0 -- -- 66
2020-09-18 20:00:00 19.7 19 Sudeste 35 Sudeste 0 -- -- 65
2020-09-18 19:00:00 21.1 18 Sudeste 41 Sur 0 -- -- 59
2020-09-18 18:00:00 21.8 23 Sudeste 41 Sudeste 0 -- -- 58
2020-09-18 17:00:00 21.9 24 Sur 43 Sudeste 0 -- -- 58
2020-09-18 16:00:00 22.6 26 Sur 42 Sur 0 -- -- 56
2020-09-18 15:00:00 23.1 22 Sudeste 38 Este 0 -- -- 56
2020-09-18 14:00:00 22.4 23 Este 35 Este 0.2 -- -- 57
2020-09-18 13:00:00 20.6 23 Este 31 Este 0 -- -- 64
2020-09-18 12:00:00 19.5 21 Este 29 Este 0 -- -- 68
2020-09-18 11:00:00 18 10 Este 23 Sur 0.4 -- -- 82
2020-09-18 10:00:00 18.2 17 Sudoeste 28 Sudoeste 0.6 -- -- 70
2020-09-18 09:00:00 18.6 14 Sudeste 27 Sur 0.4 -- -- 75
2020-09-18 08:00:00 19.9 10 Sudeste 19 Sur 0 -- -- 62
2020-09-18 07:00:00 19.6 12 Sur 26 Sur 0 -- -- 60
2020-09-18 06:00:00 20.3 14 Sur 24 Sur 0 -- -- 50
2020-09-18 05:00:00 20.6 12 Sur 19 Sur 0 -- -- 51
2020-09-18 04:00:00 20.9 13 Sur 27 Sur 0 -- -- 49
2020-09-18 03:00:00 20.6 21 Sur 30 Sur 0 -- -- 50
2020-09-18 02:00:00 20.1 14 Sur 24 Sur 0 -- -- 56
2020-09-18 01:00:00 20.7 16 Sur 24 Sur 0 -- -- 56
2020-09-18 00:00:00 21.8 15 Sur 26 Sur 0 -- -- 56
2020-09-17 23:00:00 21.6 14 Sudeste 22 Sudeste 0 -- -- 58
2020-09-17 22:00:00 21.9 13 Sudeste 25 Sudoeste 0 -- -- 56
2020-09-17 21:00:00 22.4 14 Sur 28 Sur 0 -- -- 52
2020-09-17 20:00:00 24.1 18 Sur 30 Sur 0 -- -- 47
2020-09-17 19:00:00 25.7 17 Sudeste 32 Sudeste 0 -- -- 41
2020-09-17 18:00:00 26.8 13 Sur 32 Sur 0 -- -- 36
2020-09-17 17:00:00 27.8 21 Sudoeste 36 Sur 0 -- -- 35
2020-09-17 16:00:00 27.2 11 Sur 33 Sur 0 -- -- 35
2020-09-17 15:00:00 28.3 18 Sur 35 Sur 0 -- -- 30
2020-09-17 14:00:00 25.6 15 Este 21 Este 0 -- -- 37
2020-09-17 13:00:00 24.2 7 Este 22 Sur 0 -- -- 43
2020-09-17 12:00:00 24 10 Sudeste 23 Sur 0 -- -- 43
2020-09-17 11:00:00 21.6 8 Sudeste 18 Sur 0 -- -- 48
2020-09-17 10:00:00 21.3 5 Sudoeste 14 Sudoeste 0 -- -- 49
2020-09-17 09:00:00 19.9 9 Sudoeste 18 Sudoeste 0 -- -- 57
2020-09-17 08:00:00 19.6 16 Sur 20 Sur 0 -- -- 56
2020-09-17 07:00:00 21.4 6 Este 9 Este 0 -- -- 49
2020-09-17 06:00:00 21.6 6 Nordeste 9 Nordeste 0 -- -- 49
2020-09-17 05:00:00 21.9 2 Noroeste 12 Oeste 0 -- -- 49
2020-09-17 04:00:00 20.6 9 Oeste 18 Sur 0 -- -- 52
2020-09-17 03:00:00 20.6 17 Sudoeste 20 Sur 0 -- -- 55
2020-09-17 02:00:00 20.3 14 Sudoeste 17 Sudoeste 0 -- -- 57
2020-09-17 01:00:00 20.8 17 Sur 19 Sur 0 -- -- 58
2020-09-17 00:00:00 21.5 14 Sur 19 Sur 0 -- -- 57
2020-09-16 23:00:00 23.2 10 Sur 20 Sur 0 -- -- 50
2020-09-16 22:00:00 24.4 11 Sur 24 Sur 0 -- -- 46
2020-09-16 21:00:00 24.9 14 Sur 25 Sudeste 0 -- -- 49
2020-09-16 20:00:00 25.8 16 Sudeste 27 Este 0 -- -- 51
2020-09-16 19:00:00 27.3 17 Este 23 Este 0 -- -- 41
2020-09-16 18:00:00 28.1 15 Este 29 Este 0 -- -- 38
2020-09-16 17:00:00 28.1 18 Nordeste 29 Este 0 -- -- 37
2020-09-16 16:00:00 28 19 Nordeste 29 Este 0 -- -- 38
2020-09-16 15:00:00 28.3 19 Nordeste 26 Nordeste 0 -- -- 40
2020-09-16 14:00:00 28.1 13 Nordeste 22 Nordeste 0 -- -- 43
2020-09-16 13:00:00 27.2 8 Nordeste 17 Nordeste 0 -- -- 45
2020-09-16 12:00:00 26.1 9 Nordeste 19 Nordeste 0 -- -- 46
2020-09-16 11:00:00 25.2 6 Nordeste 12 Oeste 0 -- -- 51
2020-09-16 10:00:00 21.4 5 Oeste 14 Oeste 0 -- -- 63
2020-09-16 09:00:00 19.3 14 Oeste 19 Sudoeste 0 -- -- 68
2020-09-16 08:00:00 19 20 Sudoeste 22 Sudoeste 0 -- -- 67
2020-09-16 07:00:00 19 12 Sudoeste 15 Sudoeste 0 -- -- 66
2020-09-16 06:00:00 20 6 Sudoeste 12 Sudoeste 0 -- -- 63
2020-09-16 05:00:00 20.2 6 Sudoeste 17 Oeste 0 -- -- 63
2020-09-16 04:00:00 20.1 15 Oeste 19 Oeste 0 -- -- 65
2020-09-16 03:00:00 20.5 13 Oeste 22 Oeste 0 -- -- 63
2020-09-16 02:00:00 21 15 Oeste 26 Oeste 0 -- -- 62
2020-09-16 01:00:00 20.5 20 Oeste 22 Oeste 0 -- -- 63
2020-09-16 00:00:00 21 11 Sudoeste 20 Sur 0 -- -- 61
2020-09-15 23:00:00 21.6 14 Sur 19 Sur 0 -- -- 57
2020-09-15 22:00:00 22.2 12 Sudoeste 21 Sudoeste 0 -- -- 55
2020-09-15 21:00:00 23 13 Sur 22 Sur 0 -- -- 57
2020-09-15 20:00:00 24.3 14 Sur 23 Sur 0 -- -- 51
2020-09-15 19:00:00 25.4 12 Sudoeste 42 Sudoeste 0.8 -- -- 49
2020-09-15 18:00:00 26.2 19 Sudeste 45 Este 0 -- -- 47
2020-09-15 17:00:00 27.3 25 Este 40 Este 0 -- -- 41
2020-09-15 16:00:00 28.6 24 Este 33 Este 0 -- -- 34
2020-09-15 15:00:00 28 14 Nordeste 30 Este 0 -- -- 36
2020-09-15 14:00:00 27.6 19 Este 31 Este 0 -- -- 37
2020-09-15 13:00:00 26.2 14 Este 23 Este 0 -- -- 40
2020-09-15 12:00:00 25.5 4 Sudeste 10 Sudoeste 0 -- -- 42
2020-09-15 11:00:00 25 7 Sur 17 Sudoeste 0 -- -- 44
2020-09-15 10:00:00 21 8 Sudoeste 15 Oeste 0 -- -- 61
2020-09-15 09:00:00 18.8 9 Oeste 11 Sur 0 -- -- 63
2020-09-15 08:00:00 19.2 9 Sur 15 Sur 0 -- -- 60
2020-09-15 07:00:00 20 3 Sur 9 Sur 0 -- -- 57
2020-09-15 06:00:00 19.9 5 Oeste 15 Sur 0 -- -- 60
2020-09-15 05:00:00 19.5 12 Oeste 42 Nordeste 0 -- -- 65
2020-09-15 04:00:00 21.6 10 Noroeste 57 Oeste 0 -- -- 53
2020-09-15 03:00:00 22.9 49 Oeste 70 Oeste 0 -- -- 46
2020-09-15 02:00:00 22.6 26 Sudoeste 34 Sudoeste 0 -- -- 50
2020-09-15 01:00:00 21.1 13 Sudoeste 21 Sur 0 -- -- 57
2020-09-15 00:00:00 22 17 Sur 25 Sur 0 -- -- 54
2020-09-14 23:00:00 23 15 Sur 22 Sur 0 -- -- 52
2020-09-14 22:00:00 23.4 14 Sur 26 Sudeste 0 -- -- 51
2020-09-14 21:00:00 23.9 17 Este 25 Sudeste 0 -- -- 47
2020-09-14 20:00:00 24.9 13 Este 36 Sudeste 0 -- -- 45
2020-09-14 19:00:00 25.9 20 Sudeste 42 Este 0 -- -- 43
2020-09-14 18:00:00 26.7 22 Sudeste 37 Este 0 -- -- 37
2020-09-14 17:00:00 28 24 Este 41 Este 0 -- -- 36
2020-09-14 16:00:00 29.1 23 Este 41 Este 0 -- -- 30
2020-09-14 15:00:00 28.8 26 Este 47 Este 0 -- -- 30
2020-09-14 14:00:00 27.8 24 Nordeste 35 Nordeste 0 -- -- 37
2020-09-14 13:00:00 27.8 15 Este 30 Nordeste 0 -- -- 34
2020-09-14 12:00:00 26.8 12 Nordeste 22 Nordeste 0 -- -- 35
2020-09-14 11:00:00 25.5 6 Este 11 Nordeste 0 -- -- 37
2020-09-14 10:00:00 22.2 5 Sudoeste 8 Sur 0 -- -- 43
2020-09-14 09:00:00 22.1 3 Este 10 Este 0 -- -- 43
2020-09-14 08:00:00 20.8 7 Este 8 Este 0 -- -- 45
2020-09-14 07:00:00 20.1 3 Oeste 11 Oeste 0 -- -- 46
2020-09-14 06:00:00 20.3 10 Oeste 12 Oeste 0 -- -- 47
2020-09-14 05:00:00 20.5 7 Oeste 16 Oeste 0 -- -- 46
2020-09-14 04:00:00 19.7 10 Oeste 13 Oeste 0 -- -- 45
2020-09-14 03:00:00 19.2 10 Sudoeste 20 Sur 0 -- -- 48
2020-09-14 02:00:00 19.4 16 Sudoeste 20 Sur 0 -- -- 49
2020-09-14 01:00:00 19.7 12 Sudoeste 21 Sur 0 -- -- 51
2020-09-14 00:00:00 22.7 19 Sur 25 Sur 0 -- -- 43
2020-09-13 23:00:00 23.3 17 Sur 27 Sur 0 -- -- 42
2020-09-13 22:00:00 23.7 18 Sur 30 Sur 0 -- -- 42
2020-09-13 21:00:00 24.7 15 Sudeste 34 Sudeste 0 -- -- 42
2020-09-13 20:00:00 25.9 15 Sudeste 37 Este 0 -- -- 39
2020-09-13 19:00:00 27.9 16 Sudeste 45 Este 0 -- -- 37
2020-09-13 18:00:00 28.9 28 Este 42 Este 0 -- -- 31
2020-09-13 17:00:00 29.4 26 Este 41 Este 0 -- -- 30
2020-09-13 16:00:00 29.3 23 Nordeste 35 Este 0 -- -- 30
2020-09-13 15:00:00 29 23 Nordeste 36 Nordeste 0 -- -- 28
2020-09-13 14:00:00 28.3 22 Este 29 Este 0 -- -- 35
2020-09-13 13:00:00 27.5 13 Nordeste 25 Este 0 -- -- 35
2020-09-13 12:00:00 26 9 Este 17 Nordeste 0 -- -- 38
2020-09-13 11:00:00 24.8 8 Nordeste 14 Nordeste 0 -- -- 41
2020-09-13 10:00:00 20.7 3 Oeste 14 Oeste 0 -- -- 50
2020-09-13 09:00:00 18.1 12 Oeste 16 Oeste 0 -- -- 58
2020-09-13 08:00:00 17.3 12 Oeste 15 Oeste 0 -- -- 63
2020-09-13 07:00:00 18.5 9 Sudoeste 10 Sudoeste 0 -- -- 57
2020-09-13 06:00:00 19.3 5 Sudoeste 15 Oeste 0 -- -- 54
2020-09-13 05:00:00 19.2 13 Oeste 21 Oeste 0 -- -- 57
2020-09-13 04:00:00 18.9 17 Oeste 21 Oeste 0 -- -- 59
2020-09-13 03:00:00 19.2 18 Oeste 21 Oeste 0 -- -- 60
2020-09-13 02:00:00 20 13 Sudoeste 18 Sur 0 -- -- 59
2020-09-13 01:00:00 21 13 Sur 20 Sur 0 -- -- 56
2020-09-13 00:00:00 21.2 15 Sur 22 Sur 0 -- -- 56
2020-09-12 23:00:00 22.2 14 Sur 20 Sur 0 -- -- 53
2020-09-12 22:00:00 23.6 11 Sur 18 Sudeste 0 -- -- 49
2020-09-12 21:00:00 24.7 14 Sudeste 25 Este 0 -- -- 49
2020-09-12 20:00:00 25.4 10 Nordeste 22 Nordeste 0 -- -- 38
2020-09-12 19:00:00 26.5 16 Nordeste 27 Nordeste 0 -- -- 37
2020-09-12 18:00:00 26.8 17 Nordeste 28 Este 0 -- -- 37
2020-09-12 17:00:00 27.1 13 Nordeste 27 Este 0 -- -- 38
2020-09-12 16:00:00 27.2 14 Nordeste 24 Este 0 -- -- 40
2020-09-12 15:00:00 27 10 Nordeste 21 Nordeste 0 -- -- 41
2020-09-12 14:00:00 26.5 11 Norte 20 Este 0 -- -- 42
2020-09-12 13:00:00 25.2 12 Nordeste 19 Nordeste 0 -- -- 48
2020-09-12 12:00:00 24.3 12 Nordeste 19 Nordeste 0 -- -- 52
2020-09-12 11:00:00 21.1 7 Oeste 15 Oeste 0 -- -- 60
2020-09-12 10:00:00 18.4 13 Oeste 15 Oeste 0 -- -- 61
2020-09-12 09:00:00 15.8 10 Oeste 17 Oeste 0 -- -- 66
2020-09-12 08:00:00 15.9 15 Oeste 19 Oeste 0 -- -- 65
2020-09-12 07:00:00 16.4 12 Oeste 17 Oeste 0 -- -- 63
2020-09-12 06:00:00 16 15 Oeste 17 Oeste 0 -- -- 62
2020-09-12 05:00:00 16.4 15 Oeste 17 Oeste 0 -- -- 60
2020-09-12 04:00:00 17.6 10 Sudoeste 19 Oeste 0 -- -- 56
2020-09-12 03:00:00 17.8 17 Oeste 22 Oeste 0 -- -- 55
2020-09-12 02:00:00 19.1 14 Oeste 21 Oeste 0 -- -- 51
2020-09-12 01:00:00 19.6 14 Oeste 17 Oeste 0 -- -- 49
2020-09-12 00:00:00 21.1 10 Sudoeste 15 Sur 0 -- -- 47
2020-09-11 23:00:00 21.5 12 Sur 19 Sur 0 -- -- 44
2020-09-11 22:00:00 24.1 4 Sur 11 Este 0 -- -- 37
2020-09-11 21:00:00 23.9 11 Este 13 Este 0 -- -- 36
2020-09-11 20:00:00 24.4 10 Nordeste 21 Este 0 -- -- 37
2020-09-11 19:00:00 25.4 11 Nordeste 22 Nordeste 0 -- -- 36
2020-09-11 18:00:00 25.6 15 Nordeste 27 Este 0 -- -- 38
2020-09-11 17:00:00 26.6 16 Nordeste 26 Nordeste 0 -- -- 37
2020-09-11 16:00:00 26.4 11 Nordeste 24 Nordeste 0 -- -- 39
2020-09-11 15:00:00 25.9 13 Nordeste 24 Nordeste 0 -- -- 40
2020-09-11 14:00:00 25.3 9 Noroeste 21 Nordeste 0 -- -- 41
2020-09-11 13:00:00 23.7 12 Nordeste 19 Nordeste 0 -- -- 47
2020-09-11 12:00:00 22.8 5 Noroeste 17 Oeste 0 -- -- 48
2020-09-11 11:00:00 20.2 9 Oeste 15 Oeste 0 -- -- 51
2020-09-11 10:00:00 18 9 Oeste 13 Oeste 0 -- -- 60
2020-09-11 09:00:00 15 10 Sudoeste 15 Sudoeste 0 -- -- 69
2020-09-11 08:00:00 14.8 13 Sudoeste 16 Sudoeste 0 -- -- 68
2020-09-11 07:00:00 15.4 13 Sudoeste 24 Sudoeste 0 -- -- 66
2020-09-11 06:00:00 15.5 18 Oeste 28 Oeste 0 -- -- 65
2020-09-11 05:00:00 16.1 17 Oeste 22 Oeste 0 -- -- 63
2020-09-11 04:00:00 16.6 16 Oeste 22 Oeste 0 -- -- 61
2020-09-11 03:00:00 17.3 13 Sudoeste 27 Oeste 0 -- -- 58
2020-09-11 02:00:00 17.4 16 Sudoeste 23 Sudoeste 0 -- -- 56
2020-09-11 01:00:00 18.6 15 Oeste 30 Oeste 0 -- -- 49
2020-09-11 00:00:00 19.4 25 Oeste 30 Oeste 0 -- -- 44
2020-09-10 23:00:00 21.4 24 Oeste 31 Oeste 0 -- -- 36
2020-09-10 22:00:00 22.1 20 Oeste 32 Noroeste 0 -- -- 41
2020-09-10 21:00:00 23.5 9 Noroeste 15 Norte 0 -- -- 39
2020-09-10 20:00:00 24.6 12 Norte 19 Noroeste 0 -- -- 38
2020-09-10 19:00:00 25.8 11 Norte 22 Norte 0 -- -- 36
2020-09-10 18:00:00 25.9 16 Norte 31 Norte 0 -- -- 36
2020-09-10 17:00:00 26 15 Norte 28 Norte 0 -- -- 36
2020-09-10 16:00:00 26 14 Nordeste 28 Nordeste 0 -- -- 38
2020-09-10 15:00:00 26.3 14 Norte 30 Norte 0 -- -- 40
2020-09-10 14:00:00 24.2 12 Oeste 25 Oeste 0 -- -- 46
2020-09-10 13:00:00 22.6 12 Oeste 26 Oeste 0 -- -- 49
2020-09-10 12:00:00 20.9 15 Oeste 25 Oeste 0 -- -- 55
2020-09-10 11:00:00 18.6 18 Oeste 24 Oeste 0.2 -- -- 63
2020-09-10 10:00:00 15.9 11 Oeste 20 Oeste 0 -- -- 80
2020-09-10 09:00:00 13.8 17 Oeste 19 Oeste 0 -- -- 90
2020-09-10 08:00:00 13.6 14 Oeste 23 Oeste 0 -- -- 89
2020-09-10 07:00:00 13.5 20 Oeste 26 Oeste 0 -- -- 89
2020-09-10 06:00:00 14.1 16 Oeste 21 Oeste 0 -- -- 91
2020-09-10 05:00:00 14.7 18 Oeste 21 Oeste 0 -- -- 91
2020-09-10 04:00:00 15.3 14 Oeste 21 Oeste 0 -- -- 89
2020-09-10 03:00:00 15.3 15 Oeste 23 Oeste 0 -- -- 89
2020-09-10 02:00:00 15.9 13 Sudoeste 18 Sudoeste 0 -- -- 86
2020-09-10 01:00:00 16.1 12 Sur 18 Sudoeste 1.4 -- -- 84
2020-09-10 00:00:00 16.8 13 Sudeste 21 Este 0 -- -- 78
2020-09-09 23:00:00 18.1 15 Nordeste 20 Nordeste 0.2 -- -- 76
2020-09-09 22:00:00 19 14 Este 18 Este 0 -- -- 66
2020-09-09 21:00:00 20.1 10 Este 25 Este 0 -- -- 57
2020-09-09 20:00:00 20.7 22 Este 34 Nordeste 0 -- -- 58
2020-09-09 19:00:00 22.6 18 Este 24 Nordeste 0 -- -- 46
2020-09-09 18:00:00 23 12 Nordeste 23 Nordeste 0 -- -- 45
2020-09-09 17:00:00 23.1 11 Nordeste 22 Nordeste 0 -- -- 45
2020-09-09 16:00:00 23.2 7 Nordeste 21 Nordeste 0 -- -- 46
2020-09-09 15:00:00 22 6 Norte 19 Este 0 -- -- 50
2020-09-09 14:00:00 22.6 6 Sudeste 14 Oeste 0 -- -- 50
2020-09-09 13:00:00 20.1 10 Oeste 14 Oeste 0 -- -- 56
2020-09-09 12:00:00 17.6 10 Oeste 17 Sudoeste 0 -- -- 63
2020-09-09 11:00:00 16.6 12 Sudoeste 15 Sudoeste 0 -- -- 64
2020-09-09 10:00:00 15.9 6 Oeste 10 Oeste 0 -- -- 64
2020-09-09 09:00:00 15.4 4 Nordeste 14 Oeste 0 -- -- 70
2020-09-09 08:00:00 14.4 10 Oeste 13 Oeste 0 -- -- 65
2020-09-09 07:00:00 15 7 Noroeste 12 Oeste 0 -- -- 68
2020-09-09 06:00:00 15.7 5 Noroeste 8 Norte 0 -- -- 66
2020-09-09 05:00:00 16.2 6 Nordeste 10 Nordeste 0 -- -- 64
2020-09-09 04:00:00 16.6 8 Oeste 12 Oeste 0 -- -- 59
2020-09-09 03:00:00 17.9 0 Calma 22 Este 0 -- -- 58
2020-09-09 02:00:00 18.3 9 Este 19 Este 0 -- -- 56
2020-09-09 01:00:00 18.8 13 Este 21 Este 0 -- -- 50
2020-09-09 00:00:00 18.5 10 Sur 16 Este 0 -- -- 47
2020-09-08 23:00:00 18.7 12 Sudeste 19 Sudeste 0 -- -- 46
2020-09-08 22:00:00 19.5 15 Este 22 Nordeste 0 -- -- 42
2020-09-08 21:00:00 20.3 11 Nordeste 15 Nordeste 0 -- -- 41
2020-09-08 20:00:00 20.7 9 Nordeste 24 Nordeste 0 -- -- 39
2020-09-08 19:00:00 21.4 13 Nordeste 32 Este 0 -- -- 38
2020-09-08 18:00:00 21.6 15 Este 35 Este 0 -- -- 38
2020-09-08 17:00:00 21.8 11 Nordeste 27 Nordeste 0 -- -- 37
2020-09-08 16:00:00 21.6 15 Este 27 Este 0 -- -- 37
2020-09-08 15:00:00 21.5 7 Oeste 19 Este 0 -- -- 39
2020-09-08 14:00:00 20.7 7 Este 23 Nordeste 0 -- -- 42
2020-09-08 13:00:00 20.6 6 Nordeste 20 Norte 0 -- -- 45
2020-09-08 12:00:00 18.9 10 Norte 21 Noroeste 0 -- -- 51
2020-09-08 11:00:00 15.5 16 Noroeste 31 Oeste 0 -- -- 61
2020-09-08 10:00:00 13.6 28 Oeste 35 Oeste 0 -- -- 68
2020-09-08 09:00:00 11.3 18 Oeste 24 Oeste 0 -- -- 75
2020-09-08 08:00:00 10.3 17 Oeste 21 Oeste 0 -- -- 77
2020-09-08 07:00:00 10.1 20 Oeste 26 Oeste 0 -- -- 78
2020-09-08 06:00:00 10.7 21 Oeste 30 Oeste 0 -- -- 75
2020-09-08 05:00:00 11.1 19 Oeste 24 Oeste 0 -- -- 74
2020-09-08 04:00:00 11.4 18 Oeste 28 Oeste 0 -- -- 72
2020-09-08 03:00:00 12 27 Oeste 37 Oeste 0 -- -- 70
2020-09-08 02:00:00 12.1 19 Oeste 24 Oeste 0 -- -- 68
2020-09-08 01:00:00 12.9 19 Oeste 34 Oeste 0 -- -- 64
2020-09-08 00:00:00 13.6 18 Oeste 24 Oeste 0 -- -- 58
2020-09-07 23:00:00 14.9 19 Oeste 36 Noroeste 0 -- -- 52
2020-09-07 22:00:00 16 24 Oeste 33 Noroeste 0 -- -- 48
2020-09-07 21:00:00 17.1 22 Oeste 32 Noroeste 0 -- -- 43
2020-09-07 20:00:00 19.5 26 Noroeste 32 Noroeste 0 -- -- 37
2020-09-07 19:00:00 21.4 22 Noroeste 37 Noroeste 0 -- -- 33
2020-09-07 18:00:00 22.1 21 Noroeste 39 Noroeste 0 -- -- 35
2020-09-07 17:00:00 22.4 19 Noroeste 33 Noroeste 0 -- -- 37
2020-09-07 16:00:00 21.8 18 Noroeste 42 Noroeste 0 -- -- 39
2020-09-07 15:00:00 21.1 21 Noroeste 39 Noroeste 0 -- -- 40
2020-09-07 14:00:00 20 24 Noroeste 38 Noroeste 0 -- -- 43
2020-09-07 13:00:00 19.6 18 Noroeste 40 Noroeste 0 -- -- 46
2020-09-07 12:00:00 17 24 Noroeste 47 Oeste 0 -- -- 51
2020-09-07 11:00:00 15.3 37 Oeste 57 Oeste 0 -- -- 56
2020-09-07 10:00:00 13.6 41 Noroeste 71 Oeste 0 -- -- 62
2020-09-07 09:00:00 12.7 31 Oeste 49 Oeste 0 -- -- 66
2020-09-07 08:00:00 11.9 36 Oeste 54 Oeste 0 -- -- 69
2020-09-07 07:00:00 11.8 28 Oeste 48 Noroeste 0 -- -- 69
2020-09-07 06:00:00 12.5 32 Oeste 51 Oeste 0 -- -- 65
2020-09-07 05:00:00 13 29 Oeste 58 Oeste 0 -- -- 64
2020-09-07 04:00:00 13.5 23 Oeste 31 Oeste 0 -- -- 65
2020-09-07 03:00:00 13.3 22 Oeste 36 Oeste 0 -- -- 69
2020-09-07 02:00:00 13.6 29 Oeste 37 Oeste 0 -- -- 69
2020-09-07 01:00:00 14.1 31 Oeste 50 Noroeste 0 -- -- 67
2020-09-07 00:00:00 14.8 37 Oeste 55 Oeste 0 -- -- 66
2020-09-06 23:00:00 16 39 Noroeste 51 Noroeste 0.2 -- -- 61
2020-09-06 22:00:00 17.6 27 Oeste 43 Noroeste 0 -- -- 61
2020-09-06 21:00:00 18.8 26 Noroeste 37 Noroeste 0 -- -- 51
2020-09-06 20:00:00 20.7 21 Noroeste 33 Noroeste 0 -- -- 49
2020-09-06 19:00:00 21.9 23 Noroeste 36 Norte 0 -- -- 49
2020-09-06 18:00:00 23.5 24 Noroeste 39 Norte 0 -- -- 46
2020-09-06 17:00:00 24.1 15 Noroeste 31 Noroeste 0 -- -- 46
2020-09-06 16:00:00 24.2 14 Noroeste 26 Norte 0 -- -- 47
2020-09-06 15:00:00 23.8 10 Norte 24 Nordeste 0 -- -- 49
2020-09-06 14:00:00 23.5 8 Norte 21 Norte 0 -- -- 50
2020-09-06 13:00:00 21.1 8 Oeste 21 Noroeste 0 -- -- 57
2020-09-06 12:00:00 19.7 10 Oeste 23 Oeste 0 -- -- 61
2020-09-06 11:00:00 18.3 14 Oeste 24 Oeste 0 -- -- 66
2020-09-06 10:00:00 16.3 20 Oeste 31 Oeste 0 -- -- 73
2020-09-06 09:00:00 14.5 24 Oeste 30 Oeste 0 -- -- 81
2020-09-06 08:00:00 13.6 24 Oeste 30 Oeste 0 -- -- 86
2020-09-06 07:00:00 13.8 21 Oeste 29 Oeste 0 -- -- 85
2020-09-06 06:00:00 14.1 24 Oeste 30 Oeste 0 -- -- 85
2020-09-06 05:00:00 14.6 19 Sudoeste 24 Oeste 0 -- -- 84
2020-09-06 04:00:00 15 18 Oeste 25 Oeste 0 -- -- 83
2020-09-06 03:00:00 15.6 17 Oeste 23 Oeste 0 -- -- 80
2020-09-06 02:00:00 16.3 22 Oeste 28 Oeste 0 -- -- 77
2020-09-06 01:00:00 17.5 23 Oeste 28 Oeste 0 -- -- 72
2020-09-06 00:00:00 19 10 Oeste 28 Noroeste 0 -- -- 66
2020-09-05 23:00:00 20.6 19 Noroeste 31 Noroeste 0 -- -- 62
2020-09-05 22:00:00 22.7 22 Noroeste 34 Noroeste 0 -- -- 54
2020-09-05 21:00:00 25.2 11 Nordeste 14 Norte 0 -- -- 41
2020-09-05 20:00:00 26 10 Nordeste 19 Nordeste 0 -- -- 40
2020-09-05 19:00:00 26.8 13 Nordeste 22 Nordeste 0 -- -- 38
2020-09-05 18:00:00 27.5 12 Nordeste 21 Nordeste 0 -- -- 37
2020-09-05 17:00:00 27.3 14 Nordeste 26 Nordeste 0 -- -- 38
2020-09-05 16:00:00 27.4 14 Nordeste 26 Nordeste 0 -- -- 39
2020-09-05 15:00:00 26.8 15 Nordeste 24 Norte 0 -- -- 40
2020-09-05 14:00:00 26.5 13 Nordeste 23 Nordeste 0 -- -- 41
2020-09-05 13:00:00 25.8 12 Nordeste 27 Nordeste 0 -- -- 48
2020-09-05 12:00:00 24.3 15 Nordeste 21 Nordeste 0 -- -- 53
2020-09-05 11:00:00 23.3 10 Nordeste 15 Nordeste 0 -- -- 57
2020-09-05 10:00:00 19.9 6 Oeste 16 Oeste 0 -- -- 63
2020-09-05 09:00:00 16.9 13 Oeste 15 Oeste 0 -- -- 73
2020-09-05 08:00:00 16.7 9 Oeste 14 Sudoeste 0 -- -- 72
2020-09-05 07:00:00 17 10 Oeste 14 Oeste 0 -- -- 72
2020-09-05 06:00:00 17.8 8 Oeste 16 Oeste 0 -- -- 70
2020-09-05 05:00:00 18.9 13 Oeste 16 Oeste 0 -- -- 66
2020-09-05 04:00:00 19.5 10 Oeste 17 Sudoeste 0 -- -- 64
2020-09-05 03:00:00 19.2 14 Sudoeste 19 Sur 0 -- -- 66
2020-09-05 02:00:00 19.2 15 Sudoeste 18 Sudoeste 0 -- -- 67
2020-09-05 01:00:00 19.4 17 Sudoeste 20 Sur 0 -- -- 67
2020-09-05 00:00:00 21.3 17 Sur 18 Sur 0 -- -- 61
2020-09-04 23:00:00 22.6 15 Sur 19 Sur 0 -- -- 57
2020-09-04 22:00:00 23 12 Sudeste 23 Sudeste 0 -- -- 56
2020-09-04 21:00:00 23.9 12 Este 31 Este 0 -- -- 54
2020-09-04 20:00:00 25.9 26 Este 35 Este 0 -- -- 52
2020-09-04 19:00:00 27.3 27 Este 36 Nordeste 0 -- -- 42
2020-09-04 18:00:00 27.9 24 Este 32 Nordeste 0 -- -- 33
2020-09-04 17:00:00 28.1 18 Este 29 Nordeste 0 -- -- 34
2020-09-04 16:00:00 27.8 16 Nordeste 28 Este 0 -- -- 35
2020-09-04 15:00:00 27.7 14 Nordeste 30 Este 0 -- -- 36
2020-09-04 14:00:00 26.3 14 Nordeste 27 Nordeste 0 -- -- 44
2020-09-04 13:00:00 25.6 14 Nordeste 23 Nordeste 0 -- -- 48
2020-09-04 12:00:00 24.5 10 Nordeste 17 Nordeste 0 -- -- 50
2020-09-04 11:00:00 23.1 9 Este 15 Nordeste 0 -- -- 52
2020-09-04 10:00:00 20.2 5 Oeste 15 Oeste 0 -- -- 63
2020-09-04 09:00:00 17.2 14 Oeste 17 Oeste 0 -- -- 71
2020-09-04 08:00:00 17.6 4 Oeste 6 Oeste 0 -- -- 65
2020-09-04 07:00:00 18 6 Este 12 Oeste 0 -- -- 58
2020-09-04 06:00:00 17.2 11 Oeste 15 Oeste 0 -- -- 67
2020-09-04 05:00:00 17.8 10 Oeste 14 Oeste 0 -- -- 68
2020-09-04 04:00:00 18.6 11 Sudoeste 17 Sudoeste 0 -- -- 70
2020-09-04 03:00:00 18.2 18 Sur 22 Sur 0 -- -- 71
2020-09-04 02:00:00 18.9 14 Sur 18 Sudoeste 0 -- -- 69
2020-09-04 01:00:00 19.7 13 Sudoeste 15 Sur 0 -- -- 66
2020-09-04 00:00:00 20.4 14 Sur 18 Sur 0 -- -- 64
2020-09-03 23:00:00 21.4 12 Sur 19 Sur 0 -- -- 61
2020-09-03 22:00:00 22.7 12 Sur 18 Este 0 -- -- 57
2020-09-03 21:00:00 23.5 8 Este 17 Este 0 -- -- 32
2020-09-03 20:00:00 25.4 14 Nordeste 24 Nordeste 0 -- -- 28
2020-09-03 19:00:00 26.1 18 Este 31 Nordeste 0 -- -- 28
2020-09-03 18:00:00 26.4 17 Nordeste 24 Nordeste 0 -- -- 28
2020-09-03 17:00:00 26.6 12 Este 25 Nordeste 0 -- -- 31
2020-09-03 16:00:00 26.1 13 Nordeste 26 Este 0 -- -- 33
2020-09-03 15:00:00 25.2 16 Este 28 Este 0 -- -- 36
2020-09-03 14:00:00 24.5 9 Nordeste 22 Nordeste 0 -- -- 37
2020-09-03 13:00:00 22.7 13 Nordeste 22 Nordeste 0 -- -- 40
2020-09-03 12:00:00 22.2 14 Este 22 Este 0 -- -- 40
2020-09-03 11:00:00 20.3 12 Este 19 Este 0 -- -- 42
2020-09-03 10:00:00 19.5 7 Este 12 Este 0 -- -- 44
2020-09-03 09:00:00 17.6 3 Nordeste 6 Sudeste 0 -- -- 48
2020-09-03 08:00:00 15.1 4 Sudoeste 9 Sur 0 -- -- 54
2020-09-03 07:00:00 14.7 6 Sudoeste 9 Oeste 0 -- -- 54
2020-09-03 06:00:00 14.8 9 Oeste 14 Oeste 0 -- -- 52
2020-09-03 05:00:00 14.5 13 Oeste 15 Sudoeste 0 -- -- 53
2020-09-03 04:00:00 14.8 12 Oeste 18 Oeste 0 -- -- 51
2020-09-03 03:00:00 14.7 19 Oeste 21 Oeste 0 -- -- 48
2020-09-03 02:00:00 15.8 14 Oeste 20 Oeste 0 -- -- 44
2020-09-03 01:00:00 16.4 17 Oeste 24 Oeste 0 -- -- 42
2020-09-03 00:00:00 17.2 17 Oeste 22 Oeste 0 -- -- 40
2020-09-02 23:00:00 18.5 19 Oeste 22 Oeste 0 -- -- 38
2020-09-02 22:00:00 19.9 9 Oeste 14 Noroeste 0 -- -- 37
2020-09-02 21:00:00 20.8 11 Norte 16 Norte 0 -- -- 35
2020-09-02 20:00:00 22.3 12 Norte 23 Norte 0 -- -- 31
2020-09-02 19:00:00 23.1 16 Norte 28 Nordeste 0 -- -- 31
2020-09-02 18:00:00 23.9 18 Norte 28 Norte 0 -- -- 31
2020-09-02 17:00:00 25 16 Norte 36 Noroeste 0 -- -- 31
2020-09-02 16:00:00 24.8 19 Norte 31 Norte 0 -- -- 32
2020-09-02 15:00:00 24.2 20 Noroeste 34 Noroeste 0 -- -- 35
2020-09-02 14:00:00 23.1 19 Noroeste 37 Noroeste 0 -- -- 36
2020-09-02 13:00:00 21.4 16 Oeste 28 Oeste 0 -- -- 40
2020-09-02 12:00:00 20.1 14 Oeste 30 Oeste 0 -- -- 45
2020-09-02 11:00:00 17.7 17 Oeste 28 Oeste 0 -- -- 52
2020-09-02 10:00:00 15.7 21 Oeste 27 Oeste 0 -- -- 61
2020-09-02 09:00:00 13.6 12 Oeste 21 Oeste 0 -- -- 70
2020-09-02 08:00:00 12.4 13 Sudoeste 19 Sudoeste 0 -- -- 74
2020-09-02 07:00:00 12.5 5 Sudoeste 17 Sudoeste 0 -- -- 75
2020-09-02 06:00:00 12.8 10 Oeste 21 Oeste 0 -- -- 73
2020-09-02 05:00:00 13.5 17 Oeste 36 Oeste 0 -- -- 70
2020-09-02 04:00:00 13.9 21 Oeste 30 Oeste 0 -- -- 68
2020-09-02 03:00:00 14.4 27 Oeste 33 Oeste 0 -- -- 62
2020-09-02 02:00:00 14.9 28 Oeste 36 Oeste 0 -- -- 57
2020-09-02 01:00:00 16.4 23 Oeste 30 Noroeste 0 -- -- 51
2020-09-02 00:00:00 17.6 19 Noroeste 27 Oeste 0 -- -- 43
2020-09-01 23:00:00 17.9 11 Sudoeste 17 Sur 0 -- -- 42
2020-09-01 22:00:00 18.7 9 Sudoeste 12 Sur 0 -- -- 41
2020-09-01 21:00:00 20.1 0 Calma 6 Este 0 -- -- 36
2020-09-01 20:00:00 20.9 6 Nordeste 11 Nordeste 0 -- -- 36
2020-09-01 19:00:00 21.2 5 Este 18 Nordeste 0 -- -- 35
2020-09-01 18:00:00 21.3 11 Nordeste 19 Nordeste 0 -- -- 34
2020-09-01 17:00:00 21.3 9 Nordeste 17 Nordeste 0 -- -- 34
2020-09-01 16:00:00 21.4 10 Norte 18 Nordeste 0 -- -- 33
2020-09-01 15:00:00 21.3 13 Nordeste 25 Este 0 -- -- 33
2020-09-01 14:00:00 22.4 10 Nordeste 22 Nordeste 0 -- -- 31
2020-09-01 13:00:00 21.9 10 Nordeste 17 Nordeste 0 -- -- 32
2020-09-01 12:00:00 20.8 9 Nordeste 15 Nordeste 0 -- -- 35
2020-09-01 11:00:00 19.4 7 Nordeste 12 Nordeste 0 -- -- 39
2020-09-01 10:00:00 17.5 6 Oeste 9 Oeste 0 -- -- 49
2020-09-01 09:00:00 15 8 Oeste 18 Oeste 0 -- -- 59
2020-09-01 08:00:00 14 12 Oeste 18 Oeste 0 -- -- 56
2020-09-01 07:00:00 14.2 13 Oeste 14 Oeste 0 -- -- 54
2020-09-01 06:00:00 13.9 13 Sudoeste 16 Oeste 0 -- -- 55
2020-09-01 05:00:00 13.9 15 Oeste 18 Oeste 0 -- -- 51
2020-09-01 04:00:00 16.6 10 Noroeste 18 Oeste 0 -- -- 42
2020-09-01 03:00:00 15.9 14 Oeste 18 Oeste 0 -- -- 44
2020-09-01 02:00:00 15.8 15 Oeste 18 Oeste 0 -- -- 46
2020-09-01 01:00:00 16.6 13 Oeste 15 Oeste 0 -- -- 43
2020-09-01 00:00:00 18.3 7 Sur 10 Sur 0 -- -- 39
2020-08-31 23:00:00 18.6 9 Sur 15 Sur 0 -- -- 38
2020-08-31 22:00:00 19 4 Este 11 Nordeste 0 -- -- 36
2020-08-31 21:00:00 19.1 8 Nordeste 18 Nordeste 0 -- -- 37
2020-08-31 20:00:00 20.2 14 Nordeste 30 Nordeste 0 -- -- 35
2020-08-31 19:00:00 21.2 23 Nordeste 30 Nordeste 0 -- -- 33
2020-08-31 18:00:00 21.8 17 Nordeste 30 Nordeste 0 -- -- 32
2020-08-31 17:00:00 22.5 14 Nordeste 28 Nordeste 0 -- -- 32
2020-08-31 16:00:00 22 13 Este 25 Noroeste 0 -- -- 32
2020-08-31 15:00:00 22.4 7 Nordeste 20 Noroeste 0 -- -- 33
2020-08-31 14:00:00 20.4 11 Oeste 22 Oeste 0 -- -- 32
2020-08-31 13:00:00 19.2 15 Oeste 34 Oeste 0 -- -- 39
2020-08-31 12:00:00 17.4 13 Oeste 22 Oeste 0 -- -- 44
2020-08-31 11:00:00 15.5 9 Oeste 23 Oeste 0 -- -- 51
2020-08-31 10:00:00 13.4 19 Oeste 33 Oeste 0 -- -- 59
2020-08-31 09:00:00 11.5 26 Oeste 37 Oeste 0 -- -- 66
2020-08-31 08:00:00 10.3 30 Oeste 37 Oeste 0 -- -- 71
2020-08-31 07:00:00 9.7 23 Oeste 33 Oeste 0 -- -- 73
2020-08-31 06:00:00 9.9 24 Oeste 30 Oeste 0 -- -- 73
2020-08-31 05:00:00 10.4 21 Oeste 29 Oeste 0 -- -- 72
2020-08-31 04:00:00 10.6 10 Oeste 24 Oeste 0 -- -- 71
2020-08-31 03:00:00 11 22 Oeste 34 Oeste 0 -- -- 71
2020-08-31 02:00:00 11.4 30 Oeste 39 Oeste 0 -- -- 68
2020-08-31 01:00:00 11.8 21 Oeste 34 Oeste 0 -- -- 66
2020-08-31 00:00:00 13.1 27 Oeste 54 Oeste 0 -- -- 59
2020-08-30 23:00:00 13.9 39 Oeste 53 Noroeste 0 -- -- 56
2020-08-30 22:00:00 14.6 37 Noroeste 48 Noroeste 0 -- -- 55
2020-08-30 21:00:00 15.3 29 Noroeste 43 Noroeste 0 -- -- 52
2020-08-30 20:00:00 17.3 28 Noroeste 41 Noroeste 0 -- -- 46
2020-08-30 19:00:00 18.9 27 Noroeste 46 Noroeste 0 -- -- 43
2020-08-30 18:00:00 19.3 27 Noroeste 46 Noroeste 0 -- -- 42
2020-08-30 17:00:00 19.6 27 Noroeste 43 Noroeste 0 -- -- 41
2020-08-30 16:00:00 19.2 24 Noroeste 41 Noroeste 0 -- -- 39
2020-08-30 15:00:00 18.9 25 Noroeste 41 Noroeste 0 -- -- 42
2020-08-30 14:00:00 18 24 Noroeste 43 Noroeste 0 -- -- 44
2020-08-30 13:00:00 17.5 26 Noroeste 44 Norte 0 -- -- 46
2020-08-30 12:00:00 16.2 27 Noroeste 44 Noroeste 0 -- -- 50
2020-08-30 11:00:00 14.7 33 Noroeste 48 Oeste 0 -- -- 54
2020-08-30 10:00:00 13.2 29 Noroeste 50 Noroeste 0 -- -- 58
2020-08-30 09:00:00 11.4 32 Oeste 51 Oeste 0 -- -- 65
2020-08-30 08:00:00 10.4 28 Oeste 44 Oeste 0 -- -- 68
2020-08-30 07:00:00 10.4 25 Oeste 51 Oeste 0 -- -- 66
2020-08-30 06:00:00 10.7 36 Oeste 55 Oeste 0 -- -- 65
2020-08-30 05:00:00 10.8 40 Oeste 55 Oeste 0 -- -- 64
2020-08-30 04:00:00 11.2 37 Oeste 68 Oeste 0 -- -- 64
2020-08-30 03:00:00 11.6 46 Oeste 65 Noroeste 0 -- -- 68
2020-08-30 02:00:00 12 42 Oeste 64 Oeste 0 -- -- 68
2020-08-30 01:00:00 12.8 48 Oeste 65 Oeste 0 -- -- 69
2020-08-30 00:00:00 13.3 42 Oeste 66 Oeste 0 -- -- 67
2020-08-29 23:00:00 14 40 Oeste 62 Noroeste 0 -- -- 66
2020-08-29 22:00:00 14.8 36 Noroeste 52 Noroeste 0 -- -- 65
2020-08-29 21:00:00 15.8 31 Noroeste 49 Noroeste 0 -- -- 57
2020-08-29 20:00:00 17.4 45 Noroeste 60 Noroeste 0 -- -- 48
2020-08-29 19:00:00 20.3 34 Noroeste 54 Noroeste 0 -- -- 40
2020-08-29 18:00:00 21.1 35 Noroeste 52 Noroeste 0 -- -- 38
2020-08-29 17:00:00 21.3 35 Noroeste 49 Noroeste 0 -- -- 37
2020-08-29 16:00:00 20.7 29 Noroeste 48 Noroeste 0 -- -- 39
2020-08-29 15:00:00 20.4 29 Noroeste 49 Noroeste 0 -- -- 41
2020-08-29 14:00:00 18.8 32 Noroeste 55 Noroeste 0 -- -- 46
2020-08-29 13:00:00 17.9 22 Noroeste 45 Oeste 0 -- -- 50
2020-08-29 12:00:00 16.2 25 Noroeste 39 Noroeste 0 -- -- 57
2020-08-29 11:00:00 14.6 29 Noroeste 46 Oeste 0 -- -- 61
2020-08-29 10:00:00 14.1 31 Noroeste 48 Oeste 0 -- -- 63
2020-08-29 09:00:00 13.7 32 Oeste 46 Oeste 0 -- -- 65
2020-08-29 08:00:00 13.2 28 Oeste 35 Oeste 0 -- -- 68
2020-08-29 07:00:00 13.3 22 Oeste 29 Oeste 0 -- -- 68
2020-08-29 06:00:00 13.6 20 Oeste 39 Oeste 0 -- -- 68
2020-08-29 05:00:00 13.9 30 Oeste 46 Oeste 0 -- -- 67
2020-08-29 04:00:00 14.1 21 Oeste 38 Oeste 0 -- -- 71
2020-08-29 03:00:00 14.3 25 Noroeste 38 Oeste 0 -- -- 68
2020-08-29 02:00:00 14.6 28 Oeste 45 Noroeste 0 -- -- 70
2020-08-29 01:00:00 14.9 34 Oeste 51 Oeste 0 -- -- 72
2020-08-29 00:00:00 15.7 32 Noroeste 44 Noroeste 0 -- -- 70
2020-08-28 23:00:00 16.7 22 Noroeste 39 Noroeste 0 -- -- 70
2020-08-28 22:00:00 17.3 27 Noroeste 42 Noroeste 0 -- -- 70
2020-08-28 21:00:00 18.7 29 Noroeste 39 Noroeste 0 -- -- 66
2020-08-28 20:00:00 21.1 27 Noroeste 39 Noroeste 0 -- -- 63
2020-08-28 19:00:00 23.6 8 Noroeste 15 Nordeste 1 -- -- 73
2020-08-28 18:00:00 22.4 4 Noroeste 32 Noroeste 1 -- -- 75
2020-08-28 17:00:00 25.8 19 Nordeste 43 Nordeste 0 -- -- 53
2020-08-28 16:00:00 26.4 27 Nordeste 40 Nordeste 0 -- -- 53
2020-08-28 15:00:00 27.4 20 Nordeste 31 Nordeste 0 -- -- 51
2020-08-28 14:00:00 27.2 13 Norte 28 Norte 0 -- -- 51
2020-08-28 13:00:00 26 8 Oeste 17 Oeste 0 -- -- 54
2020-08-28 12:00:00 23.9 9 Oeste 21 Oeste 0 -- -- 60
2020-08-28 11:00:00 22.4 15 Oeste 24 Oeste 0 -- -- 66
2020-08-28 10:00:00 21.2 16 Oeste 21 Oeste 0 -- -- 70
2020-08-28 09:00:00 19.7 11 Oeste 14 Oeste 0 -- -- 75
2020-08-28 08:00:00 19 9 Oeste 13 Oeste 0 -- -- 75
2020-08-28 07:00:00 19.2 10 Oeste 13 Oeste 0 -- -- 74
2020-08-28 06:00:00 19.9 9 Oeste 11 Oeste 0 -- -- 71
2020-08-28 05:00:00 20.4 9 Oeste 18 Oeste 0 -- -- 70
2020-08-28 04:00:00 20.9 17 Oeste 24 Oeste 0 -- -- 69
2020-08-28 03:00:00 21.8 12 Oeste 25 Norte 0 -- -- 71
2020-08-28 02:00:00 22.9 21 Norte 35 Noroeste 0 -- -- 69
2020-08-28 01:00:00 25.1 10 Noroeste 16 Noroeste 0 -- -- 63
2020-08-28 00:00:00 26.4 6 Este 12 Sur 0 -- -- 60
2020-08-27 23:00:00 27.3 6 Sur 17 Sur 0 -- -- 56
2020-08-27 22:00:00 28.3 14 Sur 19 Sur 0 -- -- 49
2020-08-27 21:00:00 29.1 9 Sudeste 16 Este 0 -- -- 38
2020-08-27 20:00:00 29.9 10 Este 21 Este 0 -- -- 36
2020-08-27 19:00:00 30.5 13 Este 22 Este 0 -- -- 36
2020-08-27 18:00:00 30.6 11 Nordeste 26 Este 0 -- -- 36
2020-08-27 17:00:00 30.9 17 Nordeste 30 Nordeste 0 -- -- 37
2020-08-27 16:00:00 30.9 15 Nordeste 25 Nordeste 0 -- -- 38
2020-08-27 15:00:00 30.8 15 Nordeste 27 Norte 0 -- -- 38
2020-08-27 14:00:00 29.7 12 Nordeste 19 Nordeste 0 -- -- 39
2020-08-27 13:00:00 29.2 9 Nordeste 19 Nordeste 0 -- -- 41
2020-08-27 12:00:00 28.2 6 Norte 13 Nordeste 0 -- -- 42
2020-08-27 11:00:00 25.5 5 Sudoeste 14 Oeste 0 -- -- 49
2020-08-27 10:00:00 23.6 8 Oeste 13 Oeste 0 -- -- 54
2020-08-27 09:00:00 21.1 8 Oeste 13 Oeste 0 -- -- 65
2020-08-27 08:00:00 20.7 9 Oeste 14 Oeste 0 -- -- 65
2020-08-27 07:00:00 20.9 12 Oeste 16 Oeste 0 -- -- 65
2020-08-27 06:00:00 21.1 15 Oeste 25 Oeste 0 -- -- 65
2020-08-27 05:00:00 22.1 15 Oeste 24 Oeste 0 -- -- 62
2020-08-27 04:00:00 22.1 21 Oeste 25 Oeste 0 -- -- 59
2020-08-27 03:00:00 23.3 15 Oeste 21 Oeste 0 -- -- 53
2020-08-27 02:00:00 24 18 Oeste 21 Oeste 0 -- -- 51
2020-08-27 01:00:00 25.6 17 Noroeste 18 Noroeste 0 -- -- 48
2020-08-27 00:00:00 27.1 10 Noroeste 17 Noroeste 0 -- -- 44
2020-08-26 23:00:00 27.8 11 Norte 15 Nordeste 0 -- -- 39
2020-08-26 22:00:00 28.7 10 Nordeste 13 Nordeste 0 -- -- 39
2020-08-26 21:00:00 29.1 8 Nordeste 14 Este 0 -- -- 40
2020-08-26 20:00:00 30.2 14 Nordeste 19 Nordeste 0 -- -- 39
2020-08-26 19:00:00 30.7 14 Nordeste 23 Nordeste 0 -- -- 38
2020-08-26 18:00:00 31.1 12 Nordeste 22 Nordeste 0 -- -- 38
2020-08-26 17:00:00 30.9 14 Nordeste 21 Nordeste 0 -- -- 38
2020-08-26 16:00:00 30.3 11 Nordeste 22 Nordeste 0 -- -- 39
2020-08-26 15:00:00 29.8 11 Norte 24 Nordeste 0 -- -- 39
2020-08-26 14:00:00 28.4 12 Nordeste 20 Nordeste 0 -- -- 42
2020-08-26 13:00:00 27.8 13 Nordeste 22 Nordeste 0 -- -- 43
2020-08-26 12:00:00 26 11 Nordeste 18 Nordeste 0 -- -- 46
2020-08-26 11:00:00 25.9 10 Nordeste 19 Nordeste 0 -- -- 46
2020-08-26 10:00:00 24.5 11 Nordeste 16 Nordeste 0 -- -- 48
2020-08-26 09:00:00 20.5 9 Oeste 16 Oeste 0 -- -- 59
2020-08-26 08:00:00 19.4 12 Oeste 14 Oeste 0 -- -- 61
2020-08-26 07:00:00 19.5 11 Sudoeste 15 Oeste 0 -- -- 60
2020-08-26 06:00:00 19.8 16 Oeste 18 Oeste 0 -- -- 59
2020-08-26 05:00:00 20.9 14 Oeste 22 Oeste 0 -- -- 57
2020-08-26 04:00:00 21.7 14 Oeste 22 Oeste 0 -- -- 57
2020-08-26 03:00:00 23.1 22 Noroeste 28 Noroeste 0 -- -- 55
2020-08-26 02:00:00 25.1 10 Oeste 21 Sur 0 -- -- 51
2020-08-26 01:00:00 26 14 Sur 20 Sur 0 -- -- 44
2020-08-26 00:00:00 26.3 15 Sur 22 Sur 0 -- -- 44
2020-08-25 23:00:00 27.3 12 Sudeste 22 Sudeste 0 -- -- 45
2020-08-25 22:00:00 28 17 Sudeste 26 Sudeste 0 -- -- 48
2020-08-25 21:00:00 29.4 15 Este 23 Este 0 -- -- 35
2020-08-25 20:00:00 30.4 19 Este 25 Este 0 -- -- 32
2020-08-25 19:00:00 30.9 21 Este 27 Este 0 -- -- 32
2020-08-25 18:00:00 31 17 Este 32 Este 0 -- -- 34
2020-08-25 17:00:00 31.3 14 Nordeste 26 Nordeste 0 -- -- 33
2020-08-25 16:00:00 31.1 15 Nordeste 31 Nordeste 0 -- -- 34
2020-08-25 15:00:00 30.2 20 Nordeste 33 Nordeste 0 -- -- 40
2020-08-25 14:00:00 29.2 18 Nordeste 27 Nordeste 0 -- -- 43
2020-08-25 13:00:00 28.7 15 Nordeste 22 Nordeste 0 -- -- 41
2020-08-25 12:00:00 28.3 10 Nordeste 19 Nordeste 0 -- -- 42
2020-08-25 11:00:00 26.5 9 Nordeste 14 Nordeste 0 -- -- 46
2020-08-25 10:00:00 25.3 6 Este 10 Nordeste 0 -- -- 46
2020-08-25 09:00:00 21.8 9 Sur 12 Sur 0 -- -- 53
2020-08-25 08:00:00 20.4 4 Sudoeste 6 Sudoeste 0 -- -- 53
2020-08-25 07:00:00 21 3 Nordeste 10 Oeste 0 -- -- 48
2020-08-25 06:00:00 20.7 7 Oeste 10 Oeste 0 -- -- 54
2020-08-25 05:00:00 21 3 Sudoeste 6 Sur 0 -- -- 54
2020-08-25 04:00:00 21.1 4 Oeste 14 Oeste 0 -- -- 55
2020-08-25 03:00:00 20.1 9 Oeste 15 Noroeste 0 -- -- 59
2020-08-25 02:00:00 23.1 8 Nordeste 10 Nordeste 0 -- -- 69
2020-08-25 01:00:00 23.5 0 Calma 4 Sur 0 -- -- 58
2020-08-25 00:00:00 23.6 4 Sur 15 Este 0 -- -- 52
2020-08-24 23:00:00 24.5 13 Este 17 Este 0 -- -- 45
2020-08-24 22:00:00 24.6 10 Este 15 Este 0 -- -- 44
2020-08-24 21:00:00 24.6 9 Este 15 Nordeste 0 -- -- 45
2020-08-24 20:00:00 25.6 9 Nordeste 14 Este 0 -- -- 42
2020-08-24 19:00:00 25.9 11 Nordeste 22 Nordeste 0 -- -- 41
2020-08-24 18:00:00 26.3 11 Nordeste 30 Nordeste 0 -- -- 41
2020-08-24 17:00:00 26 15 Nordeste 30 Nordeste 0 -- -- 41
2020-08-24 16:00:00 26 16 Nordeste 30 Nordeste 0 -- -- 40
2020-08-24 15:00:00 26 13 Nordeste 22 Nordeste 0 -- -- 40
2020-08-24 14:00:00 25 10 Nordeste 20 Nordeste 0 -- -- 41
2020-08-24 13:00:00 24.2 12 Nordeste 21 Nordeste 0 -- -- 43
2020-08-24 12:00:00 22.9 5 Noroeste 18 Oeste 0 -- -- 47
2020-08-24 11:00:00 19.6 13 Oeste 21 Oeste 0 -- -- 54
2020-08-24 10:00:00 17.6 15 Oeste 23 Oeste 0 -- -- 61
2020-08-24 09:00:00 15.5 15 Oeste 22 Oeste 0 -- -- 68
2020-08-24 08:00:00 14.5 15 Oeste 24 Oeste 0 -- -- 71
2020-08-24 07:00:00 14.8 14 Oeste 24 Oeste 0 -- -- 68
2020-08-24 06:00:00 15.3 18 Oeste 27 Oeste 0 -- -- 66
2020-08-24 05:00:00 16 19 Sudoeste 31 Oeste 0 -- -- 60
2020-08-24 04:00:00 16.6 24 Oeste 37 Oeste 0 -- -- 63
2020-08-24 03:00:00 17.1 31 Oeste 37 Oeste 0 -- -- 64
2020-08-24 02:00:00 17.7 30 Oeste 39 Oeste 0 -- -- 63
2020-08-24 01:00:00 18.4 32 Oeste 39 Oeste 0 -- -- 60
2020-08-24 00:00:00 19.3 27 Oeste 31 Oeste 0 -- -- 53
2020-08-23 23:00:00 20.8 15 Oeste 28 Noroeste 0 -- -- 44
2020-08-23 22:00:00 21.9 17 Noroeste 29 Noroeste 0 -- -- 38
2020-08-23 21:00:00 23.3 13 Norte 22 Norte 0 -- -- 36
2020-08-23 20:00:00 25.2 11 Norte 23 Noroeste 0 -- -- 34
2020-08-23 19:00:00 26.3 18 Norte 31 Norte 0 -- -- 31
2020-08-23 18:00:00 27 11 Norte 23 Norte 0 -- -- 33
2020-08-23 17:00:00 27.2 10 Norte 24 Noroeste 0 -- -- 35
2020-08-23 16:00:00 26.5 17 Nordeste 26 Nordeste 0 -- -- 39
2020-08-23 15:00:00 26.3 14 Norte 26 Nordeste 0 -- -- 42
2020-08-23 14:00:00 26 9 Norte 27 Noroeste 0 -- -- 46
2020-08-23 13:00:00 23.8 10 Noroeste 19 Norte 0 -- -- 51
2020-08-23 12:00:00 22.1 9 Oeste 17 Oeste 0 -- -- 54
2020-08-23 11:00:00 20.2 12 Oeste 21 Oeste 0 -- -- 60
2020-08-23 10:00:00 18.6 15 Oeste 25 Oeste 0 -- -- 66
2020-08-23 09:00:00 17.1 20 Oeste 32 Oeste 0 -- -- 72
2020-08-23 08:00:00 16.7 22 Oeste 27 Oeste 0 -- -- 74
2020-08-23 07:00:00 16.4 20 Oeste 25 Oeste 0 -- -- 76
2020-08-23 06:00:00 16 19 Oeste 31 Oeste 0 -- -- 77
2020-08-23 05:00:00 16.6 19 Oeste 27 Oeste 0 -- -- 71
2020-08-23 04:00:00 17.6 20 Oeste 28 Oeste 0 -- -- 64
2020-08-23 03:00:00 18.5 24 Oeste 29 Oeste 0 -- -- 61
2020-08-23 02:00:00 19.6 22 Oeste 27 Oeste 0 -- -- 59
2020-08-23 01:00:00 21.1 18 Oeste 29 Noroeste 0 -- -- 54
2020-08-23 00:00:00 22.2 24 Noroeste 37 Noroeste 0 -- -- 50
2020-08-22 23:00:00 23.3 27 Noroeste 36 Noroeste 0 -- -- 47
2020-08-22 22:00:00 24.7 19 Noroeste 27 Noroeste 0 -- -- 44
2020-08-22 21:00:00 26 11 Nordeste 19 Nordeste 0 -- -- 43
2020-08-22 20:00:00 26.9 9 Nordeste 22 Nordeste 0 -- -- 41
2020-08-22 19:00:00 27.5 13 Nordeste 22 Nordeste 0 -- -- 40
2020-08-22 18:00:00 28 13 Nordeste 28 Nordeste 0 -- -- 40
2020-08-22 17:00:00 27.8 15 Nordeste 32 Nordeste 0 -- -- 41
2020-08-22 16:00:00 27.9 15 Nordeste 30 Nordeste 0 -- -- 44
2020-08-22 15:00:00 28.1 13 Nordeste 27 Nordeste 0 -- -- 47
2020-08-22 14:00:00 27.4 11 Nordeste 29 Nordeste 0 -- -- 47
2020-08-22 13:00:00 26.4 9 Nordeste 23 Nordeste 0 -- -- 52
2020-08-22 12:00:00 25.2 9 Norte 20 Noroeste 0 -- -- 57
2020-08-22 11:00:00 22.8 9 Oeste 19 Oeste 0 -- -- 69
2020-08-22 10:00:00 21.1 13 Oeste 17 Oeste 0 -- -- 75
2020-08-22 09:00:00 19.5 12 Oeste 19 Oeste 0 -- -- 83
2020-08-22 08:00:00 18.2 15 Oeste 19 Oeste 0 -- -- 88
2020-08-22 07:00:00 18.3 10 Sudoeste 13 Sudoeste 0 -- -- 87
2020-08-22 06:00:00 18.6 8 Sudoeste 15 Oeste 0 -- -- 86
2020-08-22 05:00:00 19.2 13 Oeste 21 Oeste 0 -- -- 84
2020-08-22 04:00:00 19.7 20 Oeste 35 Oeste 0 -- -- 82
2020-08-22 03:00:00 20.3 29 Oeste 37 Oeste 0 -- -- 79
2020-08-22 02:00:00 21.5 16 Oeste 37 Oeste 0 -- -- 73
2020-08-22 01:00:00 23.1 28 Oeste 43 Oeste 0 -- -- 65
2020-08-22 00:00:00 24.5 30 Noroeste 46 Noroeste 0 -- -- 60
2020-08-21 23:00:00 27.5 23 Oeste 26 Oeste 0 -- -- 34
2020-08-21 22:00:00 28.6 15 Sudoeste 22 Oeste 0 -- -- 36
2020-08-21 21:00:00 30.5 9 Nordeste 21 Este 0 -- -- 29
2020-08-21 20:00:00 31.7 13 Este 25 Este 0 -- -- 27
2020-08-21 19:00:00 31.9 17 Este 26 Este 0 -- -- 25
2020-08-21 18:00:00 32.4 13 Este 28 Este 0 -- -- 26
2020-08-21 17:00:00 32.3 18 Este 31 Este 0 -- -- 27
2020-08-21 16:00:00 32 17 Este 33 Nordeste 0 -- -- 29
2020-08-21 15:00:00 32.1 19 Nordeste 31 Nordeste 0 -- -- 30
2020-08-21 14:00:00 31.2 18 Este 26 Este 0 -- -- 31
2020-08-21 13:00:00 30.6 15 Nordeste 24 Nordeste 0 -- -- 34
2020-08-21 12:00:00 30.1 8 Nordeste 17 Nordeste 0 -- -- 36
2020-08-21 11:00:00 29.2 3 Sudeste 13 Este 0 -- -- 36
2020-08-21 10:00:00 27.2 4 Este 8 Sur 0 -- -- 37
2020-08-21 09:00:00 23.6 9 Sur 11 Sur 0 -- -- 42
2020-08-21 08:00:00 23.4 6 Sudoeste 13 Oeste 0 -- -- 44
2020-08-21 07:00:00 22.7 9 Sudoeste 18 Oeste 0 -- -- 42
2020-08-21 06:00:00 22.9 10 Oeste 14 Sudoeste 0 -- -- 41
2020-08-21 05:00:00 24.2 10 Sudoeste 14 Sudoeste 0 -- -- 36
2020-08-21 04:00:00 24.2 8 Oeste 10 Oeste 0 -- -- 37
2020-08-21 03:00:00 24.9 3 Este 11 Oeste 0 -- -- 35
2020-08-21 02:00:00 25.1 3 Oeste 18 Sur 0 -- -- 35
2020-08-21 01:00:00 23.4 12 Sudoeste 32 Sur 0 -- -- 38
2020-08-21 00:00:00 26.1 23 Sur 42 Sur 0 -- -- 30